This is the latest recevied weather packets stored in our database for station/object W4TTU-1. If no packets are shown the sender has not sent any weather packets the latest 10 day(s).
| Time | Temp. | Humidity | Pressure | Rain* | Wind** | Luminosity | Snow |
|---|---|---|---|---|---|---|---|
| 1777483693 | 17.78° C | 39% | 849.8 hPa | 0 mm | - | - | - |
| 1777482793 | 17.22° C | 42% | 849.8 hPa | 0 mm | - | - | - |
| 1777481893 | 15.56° C | 45% | 850 hPa | 0 mm | - | - | - |
| 1777480994 | 13.89° C | 45% | 850.2 hPa | 0 mm | - | - | - |
| 1777480092 | 12.22° C | 46% | 850.3 hPa | 0 mm | - | - | - |
| 1777479191 | 10.56° C | 44% | 850.5 hPa | 0 mm | - | - | - |
| 1777478290 | 8.89° C | 45% | 850.5 hPa | 0 mm | - | - | - |
| 1777477390 | 7.78° C | 45% | 850.7 hPa | 0 mm | - | - | - |
| 1777476489 | 6.67° C | 44% | 850.7 hPa | 0 mm | - | - | - |
| 1777475589 | 5.56° C | 45% | 850.8 hPa | 0 mm | - | - | - |
| 1777474688 | 5° C | 45% | 850.8 hPa | 0 mm | - | - | - |
| 1777473788 | 3.89° C | 46% | 850.9 hPa | 0 mm | - | - | - |
| 1777472887 | 3.33° C | 45% | 850.8 hPa | 0 mm | - | - | - |
| 1777471987 | 2.22° C | 44% | 850.9 hPa | 0 mm | - | - | - |
| 1777471086 | 1.67° C | 44% | 850.9 hPa | 0 mm | - | - | - |
| 1777470186 | 0.56° C | 42% | 851 hPa | 0 mm | - | - | - |
| 1777469285 | 0° C | 40% | 851 hPa | 0 mm | - | - | - |
| 1777468385 | -0.56° C | 40% | 851 hPa | 0 mm | - | - | - |
| 1777467485 | -0.56° C | 39% | 850.9 hPa | 0 mm | - | - | - |
| 1777466583 | -0.56° C | 40% | 850.7 hPa | 0 mm | - | - | - |
| 1777465683 | -1.11° C | 39% | 850.8 hPa | 0 mm | - | - | - |
| 1777464782 | -1.11° C | 39% | 850.6 hPa | 0 mm | - | - | - |
| 1777463882 | -0.56° C | 37% | 850.6 hPa | 0 mm | - | - | - |
| 1777462981 | -0.56° C | 38% | 850.7 hPa | 0 mm | - | - | - |
| 1777462081 | 0° C | 37% | 850.7 hPa | 0 mm | - | - | - |
* Rain since midnight (hover to see other rain measurements)
** Current wind speed in m/s (hover to see current wind gust speed)